4MS7 weather

Arnold Field
Tunica, Mississippi, United States

Public forecast

Using degrees Fahrenheit for public forecast. Weather courtesy of forecast.io.

Closest aviation weather report (METAR) to Arnold Field

Closest report is Tunica Municipal Airport, 5.2 nm (9.6 km) SW. Retrieved 2019/10/14 04:35 UTC (0 seconds ago):

KUTA 140435Z AUTO 00000KT 10SM 08/08 A3010 RMK AO2 TSNO

Closest aviation forecast (TAF) to Arnold Field

Closest forecast is Memphis International Airport, 23.1 nm (42.9 km) NE. Retrieved 2019-10-14 00:42 UTC (4 hours ago):

TAF KMEM 132341Z 1400/1506 21003KT P6SM SKC FM141800 14004KT P6SM FEW250